sensor_id;sensor_type;location;lat;lon;timestamp;pressure;altitude;pressure_sealevel;temperature;humidity
10366;BME280;5229;41.820;23.490;2022-07-23T00:01:37;90481.41;;;21.12;44.33
10366;BME280;5229;41.820;23.490;2022-07-23T00:04:04;90481.72;;;21.07;44.35
10366;BME280;5229;41.820;23.490;2022-07-23T00:06:31;90486.53;;;21.01;44.41
10366;BME280;5229;41.820;23.490;2022-07-23T00:08:58;90488.75;;;20.99;44.66
10366;BME280;5229;41.820;23.490;2022-07-23T00:11:25;90485.28;;;20.95;44.64
10366;BME280;5229;41.820;23.490;2022-07-23T00:13:52;90494.59;;;20.89;44.75
10366;BME280;5229;41.820;23.490;2022-07-23T00:16:20;90492.38;;;20.91;44.53
10366;BME280;5229;41.820;23.490;2022-07-23T00:18:48;90496.13;;;20.90;44.63
10366;BME280;5229;41.820;23.490;2022-07-23T00:21:15;90503.22;;;20.86;44.76
10366;BME280;5229;41.820;23.490;2022-07-23T00:23:42;90494.06;;;20.80;44.94
10366;BME280;5229;41.820;23.490;2022-07-23T00:26:09;90491.31;;;20.73;45.22
10366;BME280;5229;41.820;23.490;2022-07-23T00:28:36;90496.91;;;20.68;45.30
10366;BME280;5229;41.820;23.490;2022-07-23T00:31:02;90496.00;;;20.61;45.22
10366;BME280;5229;41.820;23.490;2022-07-23T00:33:29;90493.31;;;20.57;45.42
10366;BME280;5229;41.820;23.490;2022-07-23T00:35:57;90486.84;;;20.55;45.16
10366;BME280;5229;41.820;23.490;2022-07-23T00:38:24;90489.84;;;20.53;45.37
10366;BME280;5229;41.820;23.490;2022-07-23T00:40:51;90490.22;;;20.52;45.19
10366;BME280;5229;41.820;23.490;2022-07-23T00:43:19;90481.91;;;20.50;45.28
10366;BME280;5229;41.820;23.490;2022-07-23T00:45:46;90489.09;;;20.53;45.25
10366;BME280;5229;41.820;23.490;2022-07-23T00:48:13;90487.50;;;20.48;45.22
10366;BME280;5229;41.820;23.490;2022-07-23T00:50:40;90482.53;;;20.43;44.96
10366;BME280;5229;41.820;23.490;2022-07-23T00:53:08;90479.47;;;20.41;45.05
10366;BME280;5229;41.820;23.490;2022-07-23T00:55:35;90477.97;;;20.40;44.96
10366;BME280;5229;41.820;23.490;2022-07-23T00:58:02;90478.78;;;20.44;44.81
10366;BME280;5229;41.820;23.490;2022-07-23T01:00:29;90483.72;;;20.46;44.76
10366;BME280;5229;41.820;23.490;2022-07-23T01:02:56;90482.94;;;20.45;44.46
10366;BME280;5229;41.820;23.490;2022-07-23T01:05:23;90483.72;;;20.46;44.38
10366;BME280;5229;41.820;23.490;2022-07-23T01:07:51;90474.63;;;20.43;44.44
10366;BME280;5229;41.820;23.490;2022-07-23T01:10:20;90474.69;;;20.47;44.02
10366;BME280;5229;41.820;23.490;2022-07-23T01:13:00;90474.03;;;20.53;44.13
10366;BME280;5229;41.820;23.490;2022-07-23T01:15:28;90479.03;;;20.58;43.98
10366;BME280;5229;41.820;23.490;2022-07-23T01:17:54;90474.44;;;20.55;43.60
10366;BME280;5229;41.820;23.490;2022-07-23T01:20:22;90480.03;;;20.50;43.77
10366;BME280;5229;41.820;23.490;2022-07-23T01:22:50;90478.78;;;20.44;43.70
10366;BME280;5229;41.820;23.490;2022-07-23T01:25:17;90473.78;;;20.39;43.66
10366;BME280;5229;41.820;23.490;2022-07-23T01:27:44;90477.53;;;20.38;43.67
10366;BME280;5229;41.820;23.490;2022-07-23T01:30:12;90476.72;;;20.34;43.86
10366;BME280;5229;41.820;23.490;2022-07-23T01:32:39;90472.16;;;20.31;43.70
10366;BME280;5229;41.820;23.490;2022-07-23T01:35:07;90477.38;;;20.28;43.48
10366;BME280;5229;41.820;23.490;2022-07-23T01:37:35;90476.56;;;20.24;43.73
10366;BME280;5229;41.820;23.490;2022-07-23T01:40:04;90471.63;;;20.22;43.58
10366;BME280;5229;41.820;23.490;2022-07-23T01:42:31;90474.25;;;20.22;43.63
10366;BME280;5229;41.820;23.490;2022-07-23T01:44:58;90470.91;;;20.25;43.18
10366;BME280;5229;41.820;23.490;2022-07-23T01:47:25;90470.22;;;20.28;43.61
10366;BME280;5229;41.820;23.490;2022-07-23T01:49:52;90473.66;;;20.32;43.69
10366;BME280;5229;41.820;23.490;2022-07-23T01:52:19;90479.72;;;20.33;43.32
10366;BME280;5229;41.820;23.490;2022-07-23T01:54:46;90469.81;;;20.26;43.46
10366;BME280;5229;41.820;23.490;2022-07-23T01:57:14;90478.06;;;20.25;43.56
10366;BME280;5229;41.820;23.490;2022-07-23T01:59:41;90478.28;;;20.16;43.50
10366;BME280;5229;41.820;23.490;2022-07-23T02:02:08;90477.69;;;20.07;43.67
10366;BME280;5229;41.820;23.490;2022-07-23T02:04:35;90484.38;;;20.01;43.96
10366;BME280;5229;41.820;23.490;2022-07-23T02:07:02;90484.28;;;19.97;43.90
10366;BME280;5229;41.820;23.490;2022-07-23T02:09:29;90489.50;;;19.94;44.10
10366;BME280;5229;41.820;23.490;2022-07-23T02:11:56;90481.59;;;19.94;44.11
10366;BME280;5229;41.820;23.490;2022-07-23T02:14:24;90486.78;;;19.90;44.12
10366;BME280;5229;41.820;23.490;2022-07-23T02:16:51;90479.09;;;19.82;43.93
10366;BME280;5229;41.820;23.490;2022-07-23T02:19:18;90488.31;;;19.72;44.25
10366;BME280;5229;41.820;23.490;2022-07-23T02:21:45;90488.84;;;19.62;44.18
10366;BME280;5229;41.820;23.490;2022-07-23T02:24:12;90490.25;;;19.56;44.44
10366;BME280;5229;41.820;23.490;2022-07-23T02:26:38;90491.28;;;19.52;44.54
10366;BME280;5229;41.820;23.490;2022-07-23T02:29:05;90485.44;;;19.43;44.73
10366;BME280;5229;41.820;23.490;2022-07-23T02:31:34;90490.31;;;19.41;44.80
10366;BME280;5229;41.820;23.490;2022-07-23T02:34:01;90489.47;;;19.37;44.90
10366;BME280;5229;41.820;23.490;2022-07-23T02:36:28;90493.88;;;19.33;44.70
10366;BME280;5229;41.820;23.490;2022-07-23T02:38:55;90485.56;;;19.31;44.94
10366;BME280;5229;41.820;23.490;2022-07-23T02:41:22;90489.66;;;19.28;44.94
10366;BME280;5229;41.820;23.490;2022-07-23T02:43:49;90493.81;;;19.29;44.89
10366;BME280;5229;41.820;23.490;2022-07-23T02:46:16;90492.63;;;19.27;45.00
10366;BME280;5229;41.820;23.490;2022-07-23T02:48:45;90494.16;;;19.28;44.99
10366;BME280;5229;41.820;23.490;2022-07-23T02:51:12;90494.22;;;19.31;45.06
10366;BME280;5229;41.820;23.490;2022-07-23T02:53:38;90500.00;;;19.37;45.09
10366;BME280;5229;41.820;23.490;2022-07-23T02:56:05;90496.16;;;19.34;44.91
10366;BME280;5229;41.820;23.490;2022-07-23T02:58:32;90497.59;;;19.32;44.88
10366;BME280;5229;41.820;23.490;2022-07-23T03:00:59;90498.72;;;19.31;45.02
10366;BME280;5229;41.820;23.490;2022-07-23T03:03:26;90505.16;;;19.33;44.98
10366;BME280;5229;41.820;23.490;2022-07-23T03:05:54;90514.50;;;19.31;44.92
10366;BME280;5229;41.820;23.490;2022-07-23T03:08:21;90506.44;;;19.24;45.17
10366;BME280;5229;41.820;23.490;2022-07-23T03:10:48;90513.03;;;19.18;45.83
10366;BME280;5229;41.820;23.490;2022-07-23T03:13:16;90513.72;;;19.15;45.27
10366;BME280;5229;41.820;23.490;2022-07-23T03:15:43;90512.22;;;19.14;45.15
10366;BME280;5229;41.820;23.490;2022-07-23T03:18:09;90517.81;;;19.12;45.28
10366;BME280;5229;41.820;23.490;2022-07-23T03:20:36;90523.06;;;19.12;45.51
10366;BME280;5229;41.820;23.490;2022-07-23T03:23:04;90524.50;;;19.10;45.24
10366;BME280;5229;41.820;23.490;2022-07-23T03:25:31;90523.00;;;19.09;45.14
10366;BME280;5229;41.820;23.490;2022-07-23T03:27:58;90523.69;;;19.06;45.40
10366;BME280;5229;41.820;23.490;2022-07-23T03:30:25;90522.16;;;19.05;45.22
10366;BME280;5229;41.820;23.490;2022-07-23T03:32:52;90528.94;;;19.06;45.19
10366;BME280;5229;41.820;23.490;2022-07-23T03:35:19;90521.44;;;19.08;45.14
10366;BME280;5229;41.820;23.490;2022-07-23T03:37:46;90531.28;;;19.11;44.60
10366;BME280;5229;41.820;23.490;2022-07-23T03:40:14;90531.38;;;19.14;45.26
10366;BME280;5229;41.820;23.490;2022-07-23T03:42:41;90536.72;;;19.18;44.63
10366;BME280;5229;41.820;23.490;2022-07-23T03:45:09;90536.56;;;19.26;44.79
10366;BME280;5229;41.820;23.490;2022-07-23T03:47:36;90534.19;;;19.37;44.72
10366;BME280;5229;41.820;23.490;2022-07-23T03:50:05;90531.00;;;19.47;45.01
10366;BME280;5229;41.820;23.490;2022-07-23T03:52:32;90535.38;;;19.58;45.30
10366;BME280;5229;41.820;23.490;2022-07-23T03:54:59;90530.38;;;19.69;44.93
10366;BME280;5229;41.820;23.490;2022-07-23T03:57:27;90529.44;;;19.80;45.07
10366;BME280;5229;41.820;23.490;2022-07-23T03:59:54;90537.59;;;19.91;45.14
10366;BME280;5229;41.820;23.490;2022-07-23T04:02:21;90534.06;;;20.02;45.02
10366;BME280;5229;41.820;23.490;2022-07-23T04:04:48;90535.75;;;20.10;44.53
10366;BME280;5229;41.820;23.490;2022-07-23T04:07:14;90535.19;;;20.21;44.80
10366;BME280;5229;41.820;23.490;2022-07-23T04:09:42;90533.91;;;20.34;44.58
10366;BME280;5229;41.820;23.490;2022-07-23T04:12:10;90531.47;;;20.44;44.60
10366;BME280;5229;41.820;23.490;2022-07-23T04:14:38;90524.94;;;20.57;44.65
10366;BME280;5229;41.820;23.490;2022-07-23T04:17:05;90528.94;;;20.70;44.65
10366;BME280;5229;41.820;23.490;2022-07-23T04:19:31;90528.41;;;20.84;44.46
10366;BME280;5229;41.820;23.490;2022-07-23T04:21:58;90531.72;;;21.00;44.80
10366;BME280;5229;41.820;23.490;2022-07-23T04:24:25;90536.88;;;21.15;44.19
10366;BME280;5229;41.820;23.490;2022-07-23T04:26:52;90534.88;;;21.31;44.62
10366;BME280;5229;41.820;23.490;2022-07-23T04:29:20;90542.16;;;21.41;44.57
10366;BME280;5229;41.820;23.490;2022-07-23T04:31:48;90540.50;;;21.56;44.14
10366;BME280;5229;41.820;23.490;2022-07-23T04:34:15;90535.13;;;21.75;44.14
10366;BME280;5229;41.820;23.490;2022-07-23T04:36:42;90538.09;;;21.99;44.25
10366;BME280;5229;41.820;23.490;2022-07-23T04:39:09;90540.63;;;22.22;44.01
10366;BME280;5229;41.820;23.490;2022-07-23T04:41:36;90540.13;;;22.46;43.75
10366;BME280;5229;41.820;23.490;2022-07-23T04:44:03;90536.28;;;22.69;43.51
10366;BME280;5229;41.820;23.490;2022-07-23T04:46:30;90537.59;;;22.89;43.04
10366;BME280;5229;41.820;23.490;2022-07-23T04:48:58;90538.56;;;23.11;42.53
10366;BME280;5229;41.820;23.490;2022-07-23T04:51:25;90538.34;;;23.30;42.98
10366;BME280;5229;41.820;23.490;2022-07-23T04:53:52;90532.41;;;23.44;43.09
10366;BME280;5229;41.820;23.490;2022-07-23T04:56:18;90540.47;;;23.58;43.22
10366;BME280;5229;41.820;23.490;2022-07-23T04:58:45;90545.81;;;23.72;42.98
10366;BME280;5229;41.820;23.490;2022-07-23T05:01:12;90553.13;;;23.85;42.77
10366;BME280;5229;41.820;23.490;2022-07-23T05:03:39;90544.91;;;24.01;42.55
10366;BME280;5229;41.820;23.490;2022-07-23T05:06:07;90535.16;;;24.19;42.18
10366;BME280;5229;41.820;23.490;2022-07-23T05:08:34;90540.16;;;24.34;41.96
10366;BME280;5229;41.820;23.490;2022-07-23T05:11:01;90541.34;;;24.54;41.57
10366;BME280;5229;41.820;23.490;2022-07-23T05:13:28;90536.50;;;24.74;41.14
10366;BME280;5229;41.820;23.490;2022-07-23T05:15:55;90544.13;;;24.93;40.98
10366;BME280;5229;41.820;23.490;2022-07-23T05:18:22;90540.38;;;25.08;41.07
10366;BME280;5229;41.820;23.490;2022-07-23T05:20:49;90540.78;;;25.24;41.19
10366;BME280;5229;41.820;23.490;2022-07-23T05:23:17;90548.00;;;25.37;41.55
10366;BME280;5229;41.820;23.490;2022-07-23T05:25:44;90545.72;;;25.46;41.68
10366;BME280;5229;41.820;23.490;2022-07-23T05:28:11;90543.44;;;25.56;41.02
10366;BME280;5229;41.820;23.490;2022-07-23T05:30:38;90546.50;;;25.65;40.74
10366;BME280;5229;41.820;23.490;2022-07-23T05:33:05;90553.69;;;25.78;41.26
10366;BME280;5229;41.820;23.490;2022-07-23T05:35:33;90553.28;;;25.94;40.64
10366;BME280;5229;41.820;23.490;2022-07-23T05:37:59;90560.09;;;26.12;40.69
10366;BME280;5229;41.820;23.490;2022-07-23T05:40:28;90555.50;;;26.30;39.98
10366;BME280;5229;41.820;23.490;2022-07-23T05:42:55;90553.56;;;26.48;39.72
10366;BME280;5229;41.820;23.490;2022-07-23T05:45:22;90553.88;;;26.64;39.49
10366;BME280;5229;41.820;23.490;2022-07-23T05:47:49;90557.22;;;26.82;39.58
10366;BME280;5229;41.820;23.490;2022-07-23T05:50:16;90561.34;;;26.97;39.02
10366;BME280;5229;41.820;23.490;2022-07-23T05:52:43;90557.06;;;27.14;38.54
10366;BME280;5229;41.820;23.490;2022-07-23T05:55:11;90557.34;;;27.30;38.39
10366;BME280;5229;41.820;23.490;2022-07-23T05:57:40;90558.75;;;27.45;37.89
10366;BME280;5229;41.820;23.490;2022-07-23T06:00:09;90560.94;;;27.60;37.63
10366;BME280;5229;41.820;23.490;2022-07-23T06:02:37;90565.38;;;27.77;37.55
10366;BME280;5229;41.820;23.490;2022-07-23T06:05:04;90562.25;;;27.89;37.37
10366;BME280;5229;41.820;23.490;2022-07-23T06:07:33;90559.09;;;28.01;37.56
10366;BME280;5229;41.820;23.490;2022-07-23T06:10:00;90563.19;;;28.13;37.60
10366;BME280;5229;41.820;23.490;2022-07-23T06:12:27;90563.03;;;28.27;37.34
10366;BME280;5229;41.820;23.490;2022-07-23T06:14:55;90559.47;;;28.41;37.32
10366;BME280;5229;41.820;23.490;2022-07-23T06:17:22;90552.88;;;28.52;37.69
10366;BME280;5229;41.820;23.490;2022-07-23T06:19:49;90553.47;;;28.67;37.38
10366;BME280;5229;41.820;23.490;2022-07-23T06:22:16;90551.75;;;28.83;36.79
10366;BME280;5229;41.820;23.490;2022-07-23T06:24:43;90554.25;;;28.97;36.74
10366;BME280;5229;41.820;23.490;2022-07-23T06:27:09;90551.41;;;29.11;36.61
10366;BME280;5229;41.820;23.490;2022-07-23T06:29:36;90552.38;;;29.24;36.34
10366;BME280;5229;41.820;23.490;2022-07-23T06:32:09;90546.88;;;29.35;36.66
10366;BME280;5229;41.820;23.490;2022-07-23T06:34:37;90545.94;;;29.45;36.80
10366;BME280;5229;41.820;23.490;2022-07-23T06:37:04;90538.88;;;29.58;36.72
10366;BME280;5229;41.820;23.490;2022-07-23T06:39:33;90549.06;;;29.70;35.87
10366;BME280;5229;41.820;23.490;2022-07-23T06:41:59;90538.94;;;29.81;36.19
10366;BME280;5229;41.820;23.490;2022-07-23T06:44:27;90545.97;;;29.94;35.72
10366;BME280;5229;41.820;23.490;2022-07-23T06:46:54;90548.81;;;30.07;36.28
10366;BME280;5229;41.820;23.490;2022-07-23T06:49:22;90548.59;;;30.21;36.17
10366;BME280;5229;41.820;23.490;2022-07-23T06:51:49;90549.16;;;30.32;36.16
10366;BME280;5229;41.820;23.490;2022-07-23T06:54:16;90552.06;;;30.41;35.88
10366;BME280;5229;41.820;23.490;2022-07-23T06:56:42;90545.81;;;30.47;35.47
10366;BME280;5229;41.820;23.490;2022-07-23T06:59:09;90552.94;;;30.54;35.02
10366;BME280;5229;41.820;23.490;2022-07-23T07:01:36;90550.91;;;30.61;35.07
10366;BME280;5229;41.820;23.490;2022-07-23T07:04:03;90544.63;;;30.72;34.80
10366;BME280;5229;41.820;23.490;2022-07-23T07:06:31;90549.03;;;30.82;33.60
10366;BME280;5229;41.820;23.490;2022-07-23T07:08:58;90540.34;;;30.94;33.20
10366;BME280;5229;41.820;23.490;2022-07-23T07:11:25;90544.31;;;31.05;33.50
10366;BME280;5229;41.820;23.490;2022-07-23T07:13:52;90545.16;;;31.18;33.22
10366;BME280;5229;41.820;23.490;2022-07-23T07:16:19;90545.75;;;31.29;33.17
10366;BME280;5229;41.820;23.490;2022-07-23T07:18:46;90547.38;;;31.43;32.39
10366;BME280;5229;41.820;23.490;2022-07-23T07:21:13;90542.09;;;31.55;32.67
10366;BME280;5229;41.820;23.490;2022-07-23T07:23:41;90546.78;;;31.67;32.35
10366;BME280;5229;41.820;23.490;2022-07-23T07:26:08;90544.59;;;31.78;32.07
10366;BME280;5229;41.820;23.490;2022-07-23T07:28:35;90539.78;;;31.89;31.47
10366;BME280;5229;41.820;23.490;2022-07-23T07:31:02;90543.28;;;32.02;31.23
10366;BME280;5229;41.820;23.490;2022-07-23T07:33:29;90543.03;;;32.13;30.72
10366;BME280;5229;41.820;23.490;2022-07-23T07:35:56;90542.75;;;32.23;30.62
10366;BME280;5229;41.820;23.490;2022-07-23T07:38:23;90538.75;;;32.31;30.32
10366;BME280;5229;41.820;23.490;2022-07-23T07:40:52;90535.38;;;32.43;30.35
10366;BME280;5229;41.820;23.490;2022-07-23T07:43:18;90535.44;;;32.56;30.47
10366;BME280;5229;41.820;23.490;2022-07-23T07:45:46;90532.53;;;32.63;30.21
10366;BME280;5229;41.820;23.490;2022-07-23T07:48:13;90530.56;;;32.79;29.87
10366;BME280;5229;41.820;23.490;2022-07-23T07:50:41;90523.63;;;32.94;29.60
10366;BME280;5229;41.820;23.490;2022-07-23T07:53:08;90525.91;;;33.08;29.66
10366;BME280;5229;41.820;23.490;2022-07-23T07:55:37;90532.50;;;33.20;29.64
10366;BME280;5229;41.820;23.490;2022-07-23T07:58:07;90524.03;;;33.34;29.48
10366;BME280;5229;41.820;23.490;2022-07-23T08:00:40;90520.16;;;33.48;29.02
10366;BME280;5229;41.820;23.490;2022-07-23T08:03:08;90510.38;;;33.66;29.45
10366;BME280;5229;41.820;23.490;2022-07-23T08:05:35;90509.47;;;33.82;28.96
10366;BME280;5229;41.820;23.490;2022-07-23T08:08:05;90517.78;;;34.00;28.68
10366;BME280;5229;41.820;23.490;2022-07-23T08:10:32;90515.25;;;34.18;28.21
10366;BME280;5229;41.820;23.490;2022-07-23T08:12:59;90510.25;;;34.29;28.56
10366;BME280;5229;41.820;23.490;2022-07-23T08:15:29;90506.50;;;34.39;28.32
10366;BME280;5229;41.820;23.490;2022-07-23T08:17:57;90506.56;;;34.48;28.07
10366;BME280;5229;41.820;23.490;2022-07-23T08:20:24;90505.13;;;34.56;28.38
10366;BME280;5229;41.820;23.490;2022-07-23T08:22:53;90507.16;;;34.64;28.67
10366;BME280;5229;41.820;23.490;2022-07-23T08:25:22;90508.16;;;34.79;27.91
10366;BME280;5229;41.820;23.490;2022-07-23T08:27:49;90505.84;;;34.90;27.85
10366;BME280;5229;41.820;23.490;2022-07-23T08:30:17;90501.13;;;35.03;27.03
10366;BME280;5229;41.820;23.490;2022-07-23T08:32:50;90503.75;;;35.16;26.97
10366;BME280;5229;41.820;23.490;2022-07-23T08:35:20;90500.22;;;35.28;26.95
10366;BME280;5229;41.820;23.490;2022-07-23T08:37:48;90506.63;;;35.43;26.86
10366;BME280;5229;41.820;23.490;2022-07-23T08:40:15;90514.19;;;35.57;26.28
10366;BME280;5229;41.820;23.490;2022-07-23T08:42:42;90508.00;;;35.87;25.75
10366;BME280;5229;41.820;23.490;2022-07-23T08:45:09;90502.25;;;36.43;24.85
10366;BME280;5229;41.820;23.490;2022-07-23T08:47:37;90511.66;;;37.46;23.48
10366;BME280;5229;41.820;23.490;2022-07-23T08:50:07;90501.66;;;38.97;21.08
10366;BME280;5229;41.820;23.490;2022-07-23T08:52:34;90516.72;;;40.49;20.08
10366;BME280;5229;41.820;23.490;2022-07-23T08:55:03;90516.72;;;41.86;19.44
10366;BME280;5229;41.820;23.490;2022-07-23T08:57:30;90520.63;;;43.00;18.45
10366;BME280;5229;41.820;23.490;2022-07-23T08:59:57;90521.84;;;44.02;16.84
10366;BME280;5229;41.820;23.490;2022-07-23T09:02:25;90518.69;;;45.04;16.33
10366;BME280;5229;41.820;23.490;2022-07-23T09:04:54;90529.59;;;46.02;15.77
10366;BME280;5229;41.820;23.490;2022-07-23T09:07:22;90526.06;;;46.90;14.76
10366;BME280;5229;41.820;23.490;2022-07-23T09:10:04;90519.75;;;47.57;14.29
10366;BME280;5229;41.820;23.490;2022-07-23T09:12:31;90526.34;;;48.17;14.08
10366;BME280;5229;41.820;23.490;2022-07-23T09:15:04;90519.28;;;48.66;13.14
10366;BME280;5229;41.820;23.490;2022-07-23T09:17:37;90527.91;;;49.27;12.89
10366;BME280;5229;41.820;23.490;2022-07-23T09:20:09;90529.63;;;49.77;12.28
10366;BME280;5229;41.820;23.490;2022-07-23T09:22:38;90525.38;;;50.10;11.51
10366;BME280;5229;41.820;23.490;2022-07-23T09:25:10;90520.69;;;50.38;10.80
10366;BME280;5229;41.820;23.490;2022-07-23T09:27:49;90526.47;;;50.68;10.99
10366;BME280;5229;41.820;23.490;2022-07-23T09:30:18;90515.75;;;50.93;11.03
10366;BME280;5229;41.820;23.490;2022-07-23T09:33:03;90524.50;;;51.32;10.26
10366;BME280;5229;41.820;23.490;2022-07-23T09:35:49;90518.41;;;51.69;10.07
10366;BME280;5229;41.820;23.490;2022-07-23T09:38:18;90521.44;;;52.01;9.39
10366;BME280;5229;41.820;23.490;2022-07-23T09:41:05;90516.31;;;52.21;8.89
10366;BME280;5229;41.820;23.490;2022-07-23T09:43:32;90508.22;;;52.30;8.72
10366;BME280;5229;41.820;23.490;2022-07-23T09:46:19;90516.31;;;52.13;8.57
10366;BME280;5229;41.820;23.490;2022-07-23T09:48:46;90522.19;;;52.02;8.46
10366;BME280;5229;41.820;23.490;2022-07-23T09:51:13;90515.19;;;52.08;8.20
10366;BME280;5229;41.820;23.490;2022-07-23T09:53:43;90517.06;;;52.14;7.41
10366;BME280;5229;41.820;23.490;2022-07-23T09:56:11;90514.66;;;52.18;8.12
10366;BME280;5229;41.820;23.490;2022-07-23T09:58:39;90513.72;;;52.08;7.63
10366;BME280;5229;41.820;23.490;2022-07-23T10:01:12;90504.84;;;51.94;7.70
10366;BME280;5229;41.820;23.490;2022-07-23T10:03:40;90496.31;;;51.92;7.55
10366;BME280;5229;41.820;23.490;2022-07-23T10:06:19;90500.34;;;51.83;7.77
10366;BME280;5229;41.820;23.490;2022-07-23T10:08:49;90499.25;;;51.86;7.82
10366;BME280;5229;41.820;23.490;2022-07-23T10:11:17;90490.97;;;51.94;7.45
10366;BME280;5229;41.820;23.490;2022-07-23T10:13:44;90491.75;;;52.17;8.18
10366;BME280;5229;41.820;23.490;2022-07-23T10:16:15;90489.34;;;52.14;7.18
10366;BME280;5229;41.820;23.490;2022-07-23T10:18:43;90489.88;;;52.04;7.13
10366;BME280;5229;41.820;23.490;2022-07-23T10:21:12;90482.50;;;51.99;7.06
10366;BME280;5229;41.820;23.490;2022-07-23T10:23:45;90482.69;;;51.94;7.28
10366;BME280;5229;41.820;23.490;2022-07-23T10:26:22;90476.88;;;51.84;7.69
10366;BME280;5229;41.820;23.490;2022-07-23T10:29:00;90481.50;;;51.82;7.13
10366;BME280;5229;41.820;23.490;2022-07-23T10:31:38;90479.81;;;51.79;7.26
10366;BME280;5229;41.820;23.490;2022-07-23T10:34:14;90465.56;;;51.60;7.66
10366;BME280;5229;41.820;23.490;2022-07-23T10:36:47;90462.38;;;51.48;6.97
10366;BME280;5229;41.820;23.490;2022-07-23T10:39:19;90459.06;;;51.07;7.63
10366;BME280;5229;41.820;23.490;2022-07-23T10:41:50;90460.66;;;49.84;8.46
10366;BME280;5229;41.820;23.490;2022-07-23T10:44:19;90453.13;;;48.40;9.02
10366;BME280;5229;41.820;23.490;2022-07-23T10:46:55;90447.03;;;46.96;9.29
10366;BME280;5229;41.820;23.490;2022-07-23T10:49:40;90446.34;;;45.59;9.93
10366;BME280;5229;41.820;23.490;2022-07-23T10:52:19;90440.91;;;44.45;10.25
10366;BME280;5229;41.820;23.490;2022-07-23T10:54:48;90439.28;;;43.54;11.08
10366;BME280;5229;41.820;23.490;2022-07-23T10:57:18;90420.78;;;42.83;10.97
10366;BME280;5229;41.820;23.490;2022-07-23T11:00:14;90419.69;;;42.10;11.71
10366;BME280;5229;41.820;23.490;2022-07-23T11:02:44;90413.13;;;41.55;13.05
10366;BME280;5229;41.820;23.490;2022-07-23T11:05:12;90409.69;;;41.03;12.79
10366;BME280;5229;41.820;23.490;2022-07-23T11:08:11;90404.19;;;40.52;13.17
10366;BME280;5229;41.820;23.490;2022-07-23T11:10:43;90402.34;;;40.03;13.65
10366;BME280;5229;41.820;23.490;2022-07-23T11:13:45;90402.94;;;39.58;14.86
10366;BME280;5229;41.820;23.490;2022-07-23T11:16:25;90380.53;;;39.29;15.02
10366;BME280;5229;41.820;23.490;2022-07-23T11:18:54;90381.84;;;39.04;15.25
10366;BME280;5229;41.820;23.490;2022-07-23T11:21:47;90384.47;;;38.70;15.05
10366;BME280;5229;41.820;23.490;2022-07-23T11:24:16;90390.28;;;38.39;15.81
10366;BME280;5229;41.820;23.490;2022-07-23T11:26:50;90385.38;;;38.14;15.79
10366;BME280;5229;41.820;23.490;2022-07-23T11:32:42;90379.28;;;37.48;15.78
10366;BME280;5229;41.820;23.490;2022-07-23T11:35:24;90377.91;;;37.20;16.53
10366;BME280;5229;41.820;23.490;2022-07-23T11:37:54;90374.91;;;37.09;17.46
10366;BME280;5229;41.820;23.490;2022-07-23T11:40:26;90374.06;;;36.94;17.45
10366;BME280;5229;41.820;23.490;2022-07-23T11:42:56;90372.75;;;36.81;17.37
10366;BME280;5229;41.820;23.490;2022-07-23T11:45:25;90378.63;;;36.70;17.54
10366;BME280;5229;41.820;23.490;2022-07-23T11:47:56;90368.72;;;36.58;16.81
10366;BME280;5229;41.820;23.490;2022-07-23T11:50:24;90363.66;;;36.42;17.31
10366;BME280;5229;41.820;23.490;2022-07-23T11:52:51;90363.34;;;36.31;17.94
10366;BME280;5229;41.820;23.490;2022-07-23T11:55:19;90367.53;;;36.23;17.58
10366;BME280;5229;41.820;23.490;2022-07-23T11:57:46;90371.44;;;36.13;16.90
10366;BME280;5229;41.820;23.490;2022-07-23T12:00:15;90360.66;;;36.04;17.92
10366;BME280;5229;41.820;23.490;2022-07-23T12:02:46;90364.56;;;35.94;18.82
10366;BME280;5229;41.820;23.490;2022-07-23T12:05:17;90364.53;;;35.85;19.12
10366;BME280;5229;41.820;23.490;2022-07-23T12:07:45;90366.91;;;35.74;19.15
10366;BME280;5229;41.820;23.490;2022-07-23T12:10:18;90359.38;;;35.60;18.26
10366;BME280;5229;41.820;23.490;2022-07-23T12:12:47;90351.25;;;35.42;18.71
10366;BME280;5229;41.820;23.490;2022-07-23T12:15:17;90351.50;;;35.26;19.39
10366;BME280;5229;41.820;23.490;2022-07-23T12:17:45;90348.94;;;35.13;19.58
10366;BME280;5229;41.820;23.490;2022-07-23T12:20:16;90347.69;;;35.05;19.30
10366;BME280;5229;41.820;23.490;2022-07-23T12:22:44;90346.78;;;34.99;20.06
10366;BME280;5229;41.820;23.490;2022-07-23T12:25:13;90336.72;;;34.91;20.33
10366;BME280;5229;41.820;23.490;2022-07-23T12:27:41;90340.41;;;34.84;19.53
10366;BME280;5229;41.820;23.490;2022-07-23T12:30:22;90342.63;;;34.77;19.62
10366;BME280;5229;41.820;23.490;2022-07-23T12:32:51;90336.72;;;34.69;19.92
10366;BME280;5229;41.820;23.490;2022-07-23T12:35:20;90333.84;;;34.64;19.76
10366;BME280;5229;41.820;23.490;2022-07-23T12:37:51;90335.94;;;34.60;19.13
10366;BME280;5229;41.820;23.490;2022-07-23T12:40:29;90335.00;;;34.54;18.50
10366;BME280;5229;41.820;23.490;2022-07-23T12:43:03;90329.75;;;34.50;19.29
10366;BME280;5229;41.820;23.490;2022-07-23T12:45:46;90336.19;;;34.44;19.60
10366;BME280;5229;41.820;23.490;2022-07-23T12:48:24;90331.03;;;34.37;20.24
10366;BME280;5229;41.820;23.490;2022-07-23T12:50:57;90334.19;;;34.35;20.65
10366;BME280;5229;41.820;23.490;2022-07-23T12:53:26;90328.88;;;34.32;20.49
10366;BME280;5229;41.820;23.490;2022-07-23T12:56:02;90329.31;;;34.30;20.80
10366;BME280;5229;41.820;23.490;2022-07-23T12:58:40;90335.91;;;34.29;21.05
10366;BME280;5229;41.820;23.490;2022-07-23T13:01:22;90331.72;;;34.28;19.87
10366;BME280;5229;41.820;23.490;2022-07-23T13:03:56;90333.50;;;34.31;20.10
10366;BME280;5229;41.820;23.490;2022-07-23T13:06:25;90326.19;;;34.32;20.33
10366;BME280;5229;41.820;23.490;2022-07-23T13:08:52;90318.69;;;34.27;20.89
10366;BME280;5229;41.820;23.490;2022-07-23T13:11:19;90320.88;;;34.19;20.81
10366;BME280;5229;41.820;23.490;2022-07-23T13:13:46;90319.19;;;34.13;20.75